sensor_id;sensor_type;location;lat;lon;timestamp;temperature;humidity
15152;DHT22;7676;50.900;6.234;2024-03-02T00:14:16;8.30;99.90
15152;DHT22;7676;50.900;6.234;2024-03-02T00:29:19;8.30;99.90
15152;DHT22;7676;50.900;6.234;2024-03-02T00:44:25;8.40;99.90
15152;DHT22;7676;50.900;6.234;2024-03-02T00:59:28;8.40;99.90
15152;DHT22;7676;50.900;6.234;2024-03-02T01:14:32;8.40;99.90
15152;DHT22;7676;50.900;6.234;2024-03-02T01:29:34;8.50;99.90
15152;DHT22;7676;50.900;6.234;2024-03-02T01:44:37;8.60;99.90
15152;DHT22;7676;50.900;6.234;2024-03-02T01:59:39;8.20;99.90
15152;DHT22;7676;50.900;6.234;2024-03-02T02:14:47;8.30;99.90
15152;DHT22;7676;50.900;6.234;2024-03-02T02:29:51;8.40;99.90
15152;DHT22;7676;50.900;6.234;2024-03-02T02:44:53;8.40;99.90
15152;DHT22;7676;50.900;6.234;2024-03-02T02:59:56;8.00;99.90
15152;DHT22;7676;50.900;6.234;2024-03-02T03:14:58;8.30;99.90
15152;DHT22;7676;50.900;6.234;2024-03-02T03:30:02;8.20;99.90
15152;DHT22;7676;50.900;6.234;2024-03-02T03:45:06;8.60;99.90
15152;DHT22;7676;50.900;6.234;2024-03-02T04:00:09;8.40;99.90
15152;DHT22;7676;50.900;6.234;2024-03-02T04:15:15;8.30;99.90
15152;DHT22;7676;50.900;6.234;2024-03-02T04:30:18;8.20;99.90
15152;DHT22;7676;50.900;6.234;2024-03-02T04:45:21;8.30;99.90
15152;DHT22;7676;50.900;6.234;2024-03-02T05:00:23;8.60;99.90
15152;DHT22;7676;50.900;6.234;2024-03-02T05:15:26;8.70;99.90
15152;DHT22;7676;50.900;6.234;2024-03-02T05:30:29;8.90;99.90
15152;DHT22;7676;50.900;6.234;2024-03-02T05:45:31;8.70;99.90
15152;DHT22;7676;50.900;6.234;2024-03-02T06:00:34;8.70;99.90
15152;DHT22;7676;50.900;6.234;2024-03-02T06:15:36;8.50;99.90
15152;DHT22;7676;50.900;6.234;2024-03-02T06:30:39;8.10;99.90
15152;DHT22;7676;50.900;6.234;2024-03-02T06:45:42;8.10;99.90
15152;DHT22;7676;50.900;6.234;2024-03-02T07:00:44;8.00;99.90
15152;DHT22;7676;50.900;6.234;2024-03-02T07:15:48;7.70;99.90
15152;DHT22;7676;50.900;6.234;2024-03-02T07:31:05;7.30;99.90
15152;DHT22;7676;50.900;6.234;2024-03-02T07:46:08;7.20;99.90
15152;DHT22;7676;50.900;6.234;2024-03-02T08:01:11;7.10;99.90
15152;DHT22;7676;50.900;6.234;2024-03-02T08:16:16;7.50;99.90
15152;DHT22;7676;50.900;6.234;2024-03-02T08:31:23;7.30;99.90
15152;DHT22;7676;50.900;6.234;2024-03-02T08:46:25;8.00;99.90
15152;DHT22;7676;50.900;6.234;2024-03-02T09:01:28;8.00;99.90
15152;DHT22;7676;50.900;6.234;2024-03-02T09:16:31;8.10;99.90
15152;DHT22;7676;50.900;6.234;2024-03-02T09:31:40;8.70;99.90
15152;DHT22;7676;50.900;6.234;2024-03-02T09:46:43;8.50;99.90
15152;DHT22;7676;50.900;6.234;2024-03-02T10:02:00;8.70;99.90
15152;DHT22;7676;50.900;6.234;2024-03-02T10:17:08;9.20;99.90
15152;DHT22;7676;50.900;6.234;2024-03-02T10:32:11;9.50;99.90
15152;DHT22;7676;50.900;6.234;2024-03-02T10:47:15;9.80;99.90
15152;DHT22;7676;50.900;6.234;2024-03-02T11:02:21;10.20;99.90
15152;DHT22;7676;50.900;6.234;2024-03-02T11:17:25;11.40;99.90
15152;DHT22;7676;50.900;6.234;2024-03-02T11:32:28;11.50;99.90
15152;DHT22;7676;50.900;6.234;2024-03-02T11:47:31;12.10;99.90
15152;DHT22;7676;50.900;6.234;2024-03-02T12:02:39;12.30;99.90
15152;DHT22;7676;50.900;6.234;2024-03-02T12:17:47;12.40;99.90
15152;DHT22;7676;50.900;6.234;2024-03-02T12:32:50;12.10;99.90
15152;DHT22;7676;50.900;6.234;2024-03-02T12:47:53;12.40;99.90
15152;DHT22;7676;50.900;6.234;2024-03-02T13:02:56;12.20;99.90
15152;DHT22;7676;50.900;6.234;2024-03-02T13:18:04;12.30;99.90
15152;DHT22;7676;50.900;6.234;2024-03-02T13:33:09;12.10;99.90
15152;DHT22;7676;50.900;6.234;2024-03-02T13:48:12;12.20;99.90
15152;DHT22;7676;50.900;6.234;2024-03-02T14:03:17;11.80;99.90
15152;DHT22;7676;50.900;6.234;2024-03-02T14:18:19;12.10;99.90
15152;DHT22;7676;50.900;6.234;2024-03-02T14:33:24;12.20;99.90
15152;DHT22;7676;50.900;6.234;2024-03-02T14:48:27;11.40;99.90
15152;DHT22;7676;50.900;6.234;2024-03-02T15:03:30;11.60;99.90
15152;DHT22;7676;50.900;6.234;2024-03-02T15:18:33;11.40;99.90
15152;DHT22;7676;50.900;6.234;2024-03-02T15:34:17;11.60;99.90
15152;DHT22;7676;50.900;6.234;2024-03-02T15:49:19;11.50;99.90
15152;DHT22;7676;50.900;6.234;2024-03-02T16:04:23;11.60;99.90
15152;DHT22;7676;50.900;6.234;2024-03-02T16:19:25;11.70;99.90
15152;DHT22;7676;50.900;6.234;2024-03-02T16:34:34;11.60;99.90
15152;DHT22;7676;50.900;6.234;2024-03-02T16:49:38;11.70;99.90
15152;DHT22;7676;50.900;6.234;2024-03-02T17:04:41;11.30;99.90
15152;DHT22;7676;50.900;6.234;2024-03-02T17:19:44;11.20;99.90
15152;DHT22;7676;50.900;6.234;2024-03-02T17:34:47;11.10;99.90
15152;DHT22;7676;50.900;6.234;2024-03-02T17:49:49;11.20;99.90
15152;DHT22;7676;50.900;6.234;2024-03-02T18:04:52;10.90;99.90
15152;DHT22;7676;50.900;6.234;2024-03-02T18:19:55;10.80;99.90
15152;DHT22;7676;50.900;6.234;2024-03-02T18:34:57;10.70;99.90
15152;DHT22;7676;50.900;6.234;2024-03-02T18:50:00;10.40;99.90
15152;DHT22;7676;50.900;6.234;2024-03-02T19:05:05;10.30;99.90
15152;DHT22;7676;50.900;6.234;2024-03-02T19:20:08;10.10;99.90
15152;DHT22;7676;50.900;6.234;2024-03-02T19:35:13;10.10;99.90
15152;DHT22;7676;50.900;6.234;2024-03-02T19:50:16;10.10;99.90
15152;DHT22;7676;50.900;6.234;2024-03-02T20:05:20;10.00;99.90
15152;DHT22;7676;50.900;6.234;2024-03-02T20:20:22;9.80;99.90
15152;DHT22;7676;50.900;6.234;2024-03-02T20:35:25;10.10;99.90
15152;DHT22;7676;50.900;6.234;2024-03-02T20:50:27;9.90;99.90
15152;DHT22;7676;50.900;6.234;2024-03-02T21:05:30;10.20;99.90
15152;DHT22;7676;50.900;6.234;2024-03-02T21:20:33;10.20;99.90
15152;DHT22;7676;50.900;6.234;2024-03-02T21:35:36;10.40;99.90
15152;DHT22;7676;50.900;6.234;2024-03-02T21:50:39;10.30;99.90
15152;DHT22;7676;50.900;6.234;2024-03-02T22:05:41;10.00;99.90
15152;DHT22;7676;50.900;6.234;2024-03-02T22:20:44;10.10;99.90
15152;DHT22;7676;50.900;6.234;2024-03-02T22:35:46;9.40;99.90
15152;DHT22;7676;50.900;6.234;2024-03-02T22:50:49;9.00;99.90
15152;DHT22;7676;50.900;6.234;2024-03-02T23:05:52;9.00;99.90
15152;DHT22;7676;50.900;6.234;2024-03-02T23:20:55;9.00;99.90
15152;DHT22;7676;50.900;6.234;2024-03-02T23:35:58;8.90;99.90
15152;DHT22;7676;50.900;6.234;2024-03-02T23:51:00;8.70;99.90
